sensor_id;sensor_type;location;lat;lon;timestamp;P1;durP1;ratioP1;P2;durP2;ratioP2
78787;SDS011;68131;52.508;5.502;2024-02-14T00:01:48;1.92;;;1.42;;
78787;SDS011;68131;52.508;5.502;2024-02-14T00:04:17;1.73;;;1.48;;
78787;SDS011;68131;52.508;5.502;2024-02-14T00:06:46;2.97;;;2.03;;
78787;SDS011;68131;52.508;5.502;2024-02-14T00:09:16;3.95;;;1.48;;
78787;SDS011;68131;52.508;5.502;2024-02-14T00:11:45;1.80;;;1.48;;
78787;SDS011;68131;52.508;5.502;2024-02-14T00:14:14;1.13;;;0.70;;
78787;SDS011;68131;52.508;5.502;2024-02-14T00:16:47;3.33;;;1.50;;
78787;SDS011;68131;52.508;5.502;2024-02-14T00:19:16;2.13;;;1.58;;
78787;SDS011;68131;52.508;5.502;2024-02-14T00:21:45;2.22;;;1.30;;
78787;SDS011;68131;52.508;5.502;2024-02-14T00:24:15;2.17;;;1.55;;
78787;SDS011;68131;52.508;5.502;2024-02-14T00:26:44;2.05;;;1.30;;
78787;SDS011;68131;52.508;5.502;2024-02-14T00:29:14;2.55;;;1.33;;
78787;SDS011;68131;52.508;5.502;2024-02-14T00:31:46;1.73;;;1.52;;
78787;SDS011;68131;52.508;5.502;2024-02-14T00:34:16;2.30;;;1.42;;
78787;SDS011;68131;52.508;5.502;2024-02-14T00:36:45;3.17;;;1.60;;
78787;SDS011;68131;52.508;5.502;2024-02-14T00:39:14;1.83;;;1.42;;
78787;SDS011;68131;52.508;5.502;2024-02-14T00:44:14;2.92;;;1.58;;
78787;SDS011;68131;52.508;5.502;2024-02-14T00:46:47;1.45;;;1.30;;
78787;SDS011;68131;52.508;5.502;2024-02-14T00:49:17;2.10;;;1.25;;
78787;SDS011;68131;52.508;5.502;2024-02-14T00:51:46;2.70;;;1.15;;
78787;SDS011;68131;52.508;5.502;2024-02-14T00:54:15;1.23;;;1.13;;
78787;SDS011;68131;52.508;5.502;2024-02-14T00:56:44;2.67;;;1.63;;
78787;SDS011;68131;52.508;5.502;2024-02-14T00:59:13;2.33;;;1.50;;
78787;SDS011;68131;52.508;5.502;2024-02-14T01:01:42;1.60;;;1.23;;
78787;SDS011;68131;52.508;5.502;2024-02-14T01:04:14;1.63;;;1.33;;
78787;SDS011;68131;52.508;5.502;2024-02-14T01:06:43;4.00;;;1.10;;
78787;SDS011;68131;52.508;5.502;2024-02-14T01:09:15;1.88;;;1.48;;
78787;SDS011;68131;52.508;5.502;2024-02-14T01:11:44;2.33;;;1.63;;
78787;SDS011;68131;52.508;5.502;2024-02-14T01:14:14;1.50;;;1.40;;
78787;SDS011;68131;52.508;5.502;2024-02-14T01:16:44;2.42;;;1.85;;
78787;SDS011;68131;52.508;5.502;2024-02-14T01:19:16;2.45;;;1.27;;
78787;SDS011;68131;52.508;5.502;2024-02-14T01:21:49;2.63;;;1.85;;
78787;SDS011;68131;52.508;5.502;2024-02-14T01:24:18;2.38;;;1.33;;
78787;SDS011;68131;52.508;5.502;2024-02-14T01:26:48;2.08;;;1.35;;
78787;SDS011;68131;52.508;5.502;2024-02-14T01:29:17;2.05;;;1.70;;
78787;SDS011;68131;52.508;5.502;2024-02-14T01:31:47;2.83;;;1.50;;
78787;SDS011;68131;52.508;5.502;2024-02-14T01:34:21;2.75;;;2.00;;
78787;SDS011;68131;52.508;5.502;2024-02-14T01:36:50;2.08;;;1.58;;
78787;SDS011;68131;52.508;5.502;2024-02-14T01:39:20;2.65;;;2.05;;
78787;SDS011;68131;52.508;5.502;2024-02-14T01:41:50;3.30;;;2.20;;
78787;SDS011;68131;52.508;5.502;2024-02-14T01:44:19;5.85;;;2.25;;
78787;SDS011;68131;52.508;5.502;2024-02-14T01:46:48;2.17;;;1.90;;
78787;SDS011;68131;52.508;5.502;2024-02-14T01:49:21;2.72;;;1.98;;
78787;SDS011;68131;52.508;5.502;2024-02-14T01:51:54;3.90;;;2.38;;
78787;SDS011;68131;52.508;5.502;2024-02-14T01:54:25;3.45;;;1.67;;
78787;SDS011;68131;52.508;5.502;2024-02-14T01:56:55;2.70;;;2.15;;
78787;SDS011;68131;52.508;5.502;2024-02-14T01:59:25;3.47;;;2.30;;
78787;SDS011;68131;52.508;5.502;2024-02-14T02:01:56;3.35;;;2.65;;
78787;SDS011;68131;52.508;5.502;2024-02-14T02:04:27;2.67;;;2.00;;
78787;SDS011;68131;52.508;5.502;2024-02-14T02:06:57;3.13;;;2.03;;
78787;SDS011;68131;52.508;5.502;2024-02-14T02:09:27;2.65;;;1.77;;
78787;SDS011;68131;52.508;5.502;2024-02-14T02:11:59;2.90;;;2.03;;
78787;SDS011;68131;52.508;5.502;2024-02-14T02:14:32;3.25;;;2.13;;
78787;SDS011;68131;52.508;5.502;2024-02-14T02:17:01;2.15;;;1.85;;
78787;SDS011;68131;52.508;5.502;2024-02-14T02:19:36;3.05;;;2.00;;
78787;SDS011;68131;52.508;5.502;2024-02-14T02:22:05;1.75;;;1.65;;
78787;SDS011;68131;52.508;5.502;2024-02-14T02:24:37;3.40;;;2.50;;
78787;SDS011;68131;52.508;5.502;2024-02-14T02:27:06;2.58;;;1.77;;
78787;SDS011;68131;52.508;5.502;2024-02-14T02:29:35;4.28;;;2.72;;
78787;SDS011;68131;52.508;5.502;2024-02-14T02:32:04;2.78;;;1.95;;
78787;SDS011;68131;52.508;5.502;2024-02-14T02:34:35;2.63;;;1.85;;
78787;SDS011;68131;52.508;5.502;2024-02-14T02:37:07;6.10;;;2.13;;
78787;SDS011;68131;52.508;5.502;2024-02-14T02:39:38;2.90;;;2.30;;
78787;SDS011;68131;52.508;5.502;2024-02-14T02:42:08;2.80;;;2.35;;
78787;SDS011;68131;52.508;5.502;2024-02-14T02:44:38;3.00;;;1.80;;
78787;SDS011;68131;52.508;5.502;2024-02-14T02:47:08;3.88;;;2.60;;
78787;SDS011;68131;52.508;5.502;2024-02-14T02:49:39;4.80;;;2.65;;
78787;SDS011;68131;52.508;5.502;2024-02-14T02:52:09;3.15;;;1.90;;
78787;SDS011;68131;52.508;5.502;2024-02-14T02:54:42;3.35;;;2.83;;
78787;SDS011;68131;52.508;5.502;2024-02-14T02:57:13;3.17;;;2.28;;
78787;SDS011;68131;52.508;5.502;2024-02-14T02:59:44;2.97;;;1.77;;
78787;SDS011;68131;52.508;5.502;2024-02-14T03:02:14;6.18;;;2.28;;
78787;SDS011;68131;52.508;5.502;2024-02-14T03:07:13;4.28;;;2.35;;
78787;SDS011;68131;52.508;5.502;2024-02-14T03:09:45;2.58;;;1.80;;
78787;SDS011;68131;52.508;5.502;2024-02-14T03:12:14;3.80;;;2.30;;
78787;SDS011;68131;52.508;5.502;2024-02-14T03:14:44;2.10;;;1.75;;
78787;SDS011;68131;52.508;5.502;2024-02-14T03:17:14;2.65;;;1.83;;
78787;SDS011;68131;52.508;5.502;2024-02-14T03:19:46;2.47;;;2.10;;
78787;SDS011;68131;52.508;5.502;2024-02-14T03:22:17;2.47;;;1.75;;
78787;SDS011;68131;52.508;5.502;2024-02-14T03:24:49;2.10;;;1.50;;
78787;SDS011;68131;52.508;5.502;2024-02-14T03:27:18;2.33;;;1.67;;
78787;SDS011;68131;52.508;5.502;2024-02-14T03:29:51;2.55;;;2.05;;
78787;SDS011;68131;52.508;5.502;2024-02-14T03:32:21;2.60;;;1.73;;
78787;SDS011;68131;52.508;5.502;2024-02-14T03:34:52;1.63;;;1.40;;
78787;SDS011;68131;52.508;5.502;2024-02-14T03:37:21;2.63;;;1.60;;
78787;SDS011;68131;52.508;5.502;2024-02-14T03:39:52;1.60;;;1.20;;
78787;SDS011;68131;52.508;5.502;2024-02-14T03:42:21;2.25;;;1.27;;
78787;SDS011;68131;52.508;5.502;2024-02-14T03:44:52;1.50;;;1.08;;
78787;SDS011;68131;52.508;5.502;2024-02-14T03:47:28;1.70;;;1.00;;
78787;SDS011;68131;52.508;5.502;2024-02-14T03:49:58;1.77;;;1.33;;
78787;SDS011;68131;52.508;5.502;2024-02-14T03:52:28;2.13;;;1.40;;
78787;SDS011;68131;52.508;5.502;2024-02-14T03:55:00;2.63;;;1.52;;
78787;SDS011;68131;52.508;5.502;2024-02-14T03:57:30;1.30;;;1.15;;
78787;SDS011;68131;52.508;5.502;2024-02-14T04:00:01;1.45;;;1.27;;
78787;SDS011;68131;52.508;5.502;2024-02-14T04:02:39;1.38;;;1.27;;
78787;SDS011;68131;52.508;5.502;2024-02-14T04:05:08;1.50;;;1.17;;
78787;SDS011;68131;52.508;5.502;2024-02-14T04:07:37;1.33;;;1.23;;
78787;SDS011;68131;52.508;5.502;2024-02-14T04:10:17;2.00;;;1.73;;
78787;SDS011;68131;52.508;5.502;2024-02-14T04:12:46;2.00;;;1.40;;
78787;SDS011;68131;52.508;5.502;2024-02-14T04:15:15;3.17;;;1.55;;
78787;SDS011;68131;52.508;5.502;2024-02-14T04:17:45;2.20;;;1.75;;
78787;SDS011;68131;52.508;5.502;2024-02-14T04:20:14;2.83;;;1.77;;
78787;SDS011;68131;52.508;5.502;2024-02-14T04:22:43;2.55;;;1.70;;
78787;SDS011;68131;52.508;5.502;2024-02-14T04:25:12;2.30;;;1.63;;
78787;SDS011;68131;52.508;5.502;2024-02-14T04:27:44;3.45;;;2.13;;
78787;SDS011;68131;52.508;5.502;2024-02-14T04:30:13;2.47;;;1.85;;
78787;SDS011;68131;52.508;5.502;2024-02-14T04:32:42;2.83;;;1.90;;
78787;SDS011;68131;52.508;5.502;2024-02-14T04:35:11;3.00;;;2.00;;
78787;SDS011;68131;52.508;5.502;2024-02-14T04:37:41;4.07;;;2.35;;
78787;SDS011;68131;52.508;5.502;2024-02-14T04:40:12;3.75;;;2.60;;
78787;SDS011;68131;52.508;5.502;2024-02-14T04:42:44;2.50;;;2.28;;
78787;SDS011;68131;52.508;5.502;2024-02-14T04:45:13;7.18;;;2.92;;
78787;SDS011;68131;52.508;5.502;2024-02-14T04:47:43;3.33;;;2.40;;
78787;SDS011;68131;52.508;5.502;2024-02-14T04:50:12;2.90;;;2.20;;
78787;SDS011;68131;52.508;5.502;2024-02-14T04:52:41;3.40;;;2.22;;
78787;SDS011;68131;52.508;5.502;2024-02-14T04:55:10;2.85;;;2.17;;
78787;SDS011;68131;52.508;5.502;2024-02-14T04:57:39;3.17;;;1.50;;
78787;SDS011;68131;52.508;5.502;2024-02-14T05:00:12;5.80;;;2.00;;
78787;SDS011;68131;52.508;5.502;2024-02-14T05:02:45;6.07;;;1.60;;
78787;SDS011;68131;52.508;5.502;2024-02-14T05:05:15;3.53;;;2.28;;
78787;SDS011;68131;52.508;5.502;2024-02-14T05:07:46;4.80;;;2.00;;
78787;SDS011;68131;52.508;5.502;2024-02-14T05:10:15;3.58;;;1.30;;
78787;SDS011;68131;52.508;5.502;2024-02-14T05:12:47;6.03;;;2.03;;
78787;SDS011;68131;52.508;5.502;2024-02-14T05:15:19;6.50;;;1.55;;
78787;SDS011;68131;52.508;5.502;2024-02-14T05:17:48;4.50;;;1.65;;
78787;SDS011;68131;52.508;5.502;2024-02-14T05:20:17;5.97;;;1.70;;
78787;SDS011;68131;52.508;5.502;2024-02-14T05:22:46;2.08;;;1.08;;
78787;SDS011;68131;52.508;5.502;2024-02-14T05:25:15;6.85;;;1.55;;
78787;SDS011;68131;52.508;5.502;2024-02-14T05:27:45;3.80;;;1.52;;
78787;SDS011;68131;52.508;5.502;2024-02-14T05:30:19;4.07;;;1.55;;
78787;SDS011;68131;52.508;5.502;2024-02-14T05:32:48;3.95;;;1.50;;
78787;SDS011;68131;52.508;5.502;2024-02-14T05:35:18;4.57;;;1.80;;
78787;SDS011;68131;52.508;5.502;2024-02-14T05:37:47;2.63;;;1.20;;
78787;SDS011;68131;52.508;5.502;2024-02-14T05:40:17;8.35;;;1.88;;
78787;SDS011;68131;52.508;5.502;2024-02-14T05:42:46;10.75;;;2.30;;
78787;SDS011;68131;52.508;5.502;2024-02-14T05:45:21;6.70;;;1.67;;
78787;SDS011;68131;52.508;5.502;2024-02-14T05:47:50;4.00;;;1.73;;
78787;SDS011;68131;52.508;5.502;2024-02-14T05:50:19;3.90;;;1.90;;
78787;SDS011;68131;52.508;5.502;2024-02-14T05:52:51;4.50;;;1.30;;
78787;SDS011;68131;52.508;5.502;2024-02-14T05:55:20;9.77;;;1.77;;
78787;SDS011;68131;52.508;5.502;2024-02-14T05:57:50;3.33;;;1.40;;
78787;SDS011;68131;52.508;5.502;2024-02-14T06:00:22;10.05;;;2.15;;
78787;SDS011;68131;52.508;5.502;2024-02-14T06:02:51;4.25;;;1.52;;
78787;SDS011;68131;52.508;5.502;2024-02-14T06:05:20;4.95;;;2.05;;
78787;SDS011;68131;52.508;5.502;2024-02-14T06:07:49;7.78;;;2.05;;
78787;SDS011;68131;52.508;5.502;2024-02-14T06:10:18;11.65;;;2.55;;
78787;SDS011;68131;52.508;5.502;2024-02-14T06:12:48;8.70;;;3.45;;
78787;SDS011;68131;52.508;5.502;2024-02-14T06:15:17;3.47;;;1.55;;
78787;SDS011;68131;52.508;5.502;2024-02-14T06:17:49;4.68;;;1.70;;
78787;SDS011;68131;52.508;5.502;2024-02-14T06:20:18;4.78;;;2.13;;
78787;SDS011;68131;52.508;5.502;2024-02-14T06:22:48;5.85;;;1.65;;
78787;SDS011;68131;52.508;5.502;2024-02-14T06:25:17;6.68;;;1.90;;
78787;SDS011;68131;52.508;5.502;2024-02-14T06:27:47;7.63;;;1.98;;
78787;SDS011;68131;52.508;5.502;2024-02-14T06:30:16;4.85;;;2.20;;
78787;SDS011;68131;52.508;5.502;2024-02-14T06:32:45;6.75;;;2.88;;
78787;SDS011;68131;52.508;5.502;2024-02-14T06:35:17;7.18;;;1.63;;
78787;SDS011;68131;52.508;5.502;2024-02-14T06:37:46;5.53;;;1.92;;
78787;SDS011;68131;52.508;5.502;2024-02-14T06:40:15;6.63;;;2.30;;
78787;SDS011;68131;52.508;5.502;2024-02-14T06:42:44;7.55;;;2.10;;
78787;SDS011;68131;52.508;5.502;2024-02-14T06:45:16;6.38;;;1.75;;
78787;SDS011;68131;52.508;5.502;2024-02-14T06:47:45;7.00;;;2.17;;
78787;SDS011;68131;52.508;5.502;2024-02-14T06:50:19;6.75;;;2.17;;
78787;SDS011;68131;52.508;5.502;2024-02-14T06:52:50;7.38;;;2.15;;
78787;SDS011;68131;52.508;5.502;2024-02-14T06:55:20;7.93;;;2.47;;
78787;SDS011;68131;52.508;5.502;2024-02-14T06:57:49;4.82;;;2.22;;
78787;SDS011;68131;52.508;5.502;2024-02-14T07:00:19;5.80;;;2.30;;
78787;SDS011;68131;52.508;5.502;2024-02-14T07:02:49;4.00;;;1.45;;
78787;SDS011;68131;52.508;5.502;2024-02-14T07:05:20;6.95;;;2.17;;
78787;SDS011;68131;52.508;5.502;2024-02-14T07:07:52;3.40;;;1.23;;
78787;SDS011;68131;52.508;5.502;2024-02-14T07:10:21;7.95;;;1.50;;
78787;SDS011;68131;52.508;5.502;2024-02-14T07:12:50;6.30;;;2.13;;
78787;SDS011;68131;52.508;5.502;2024-02-14T07:15:20;6.13;;;2.58;;
78787;SDS011;68131;52.508;5.502;2024-02-14T07:17:51;4.55;;;1.70;;
78787;SDS011;68131;52.508;5.502;2024-02-14T07:20:26;9.57;;;2.40;;
78787;SDS011;68131;52.508;5.502;2024-02-14T07:22:55;9.40;;;2.78;;
78787;SDS011;68131;52.508;5.502;2024-02-14T07:25:24;4.00;;;1.83;;
78787;SDS011;68131;52.508;5.502;2024-02-14T07:27:54;4.90;;;2.10;;
78787;SDS011;68131;52.508;5.502;2024-02-14T07:30:23;6.53;;;2.80;;
78787;SDS011;68131;52.508;5.502;2024-02-14T07:32:52;6.45;;;2.30;;
78787;SDS011;68131;52.508;5.502;2024-02-14T07:35:22;4.25;;;2.17;;
78787;SDS011;68131;52.508;5.502;2024-02-14T07:37:54;5.68;;;2.90;;
78787;SDS011;68131;52.508;5.502;2024-02-14T07:40:23;7.20;;;2.60;;
78787;SDS011;68131;52.508;5.502;2024-02-14T07:42:53;6.03;;;2.35;;
78787;SDS011;68131;52.508;5.502;2024-02-14T07:45:26;5.78;;;3.28;;
78787;SDS011;68131;52.508;5.502;2024-02-14T07:47:56;7.70;;;2.92;;
78787;SDS011;68131;52.508;5.502;2024-02-14T07:50:25;6.45;;;3.08;;
78787;SDS011;68131;52.508;5.502;2024-02-14T07:52:57;7.45;;;3.42;;
78787;SDS011;68131;52.508;5.502;2024-02-14T07:55:26;10.45;;;3.65;;
78787;SDS011;68131;52.508;5.502;2024-02-14T07:57:56;6.20;;;3.15;;
78787;SDS011;68131;52.508;5.502;2024-02-14T08:00:25;6.63;;;4.32;;
78787;SDS011;68131;52.508;5.502;2024-02-14T08:02:54;8.65;;;4.28;;
78787;SDS011;68131;52.508;5.502;2024-02-14T08:05:23;11.73;;;3.70;;
78787;SDS011;68131;52.508;5.502;2024-02-14T08:07:52;5.72;;;3.92;;
78787;SDS011;68131;52.508;5.502;2024-02-14T08:10:24;11.85;;;3.72;;
78787;SDS011;68131;52.508;5.502;2024-02-14T08:12:53;4.93;;;2.95;;
78787;SDS011;68131;52.508;5.502;2024-02-14T08:15:22;8.13;;;3.97;;
78787;SDS011;68131;52.508;5.502;2024-02-14T08:17:52;8.25;;;3.45;;
78787;SDS011;68131;52.508;5.502;2024-02-14T08:20:22;7.38;;;2.83;;
78787;SDS011;68131;52.508;5.502;2024-02-14T08:22:51;6.20;;;2.80;;
78787;SDS011;68131;52.508;5.502;2024-02-14T08:25:20;7.05;;;3.25;;
78787;SDS011;68131;52.508;5.502;2024-02-14T08:27:52;9.77;;;3.33;;
78787;SDS011;68131;52.508;5.502;2024-02-14T08:30:21;8.35;;;4.05;;
78787;SDS011;68131;52.508;5.502;2024-02-14T08:32:50;10.07;;;4.25;;
78787;SDS011;68131;52.508;5.502;2024-02-14T08:35:19;9.60;;;4.80;;
78787;SDS011;68131;52.508;5.502;2024-02-14T08:37:48;14.60;;;5.57;;
78787;SDS011;68131;52.508;5.502;2024-02-14T08:40:17;9.30;;;6.10;;
78787;SDS011;68131;52.508;5.502;2024-02-14T08:42:46;9.57;;;5.22;;
78787;SDS011;68131;52.508;5.502;2024-02-14T08:45:18;9.25;;;4.15;;
78787;SDS011;68131;52.508;5.502;2024-02-14T08:47:48;8.40;;;4.30;;
78787;SDS011;68131;52.508;5.502;2024-02-14T08:50:17;9.25;;;5.35;;
78787;SDS011;68131;52.508;5.502;2024-02-14T08:52:46;10.57;;;4.47;;
78787;SDS011;68131;52.508;5.502;2024-02-14T08:55:16;11.85;;;4.68;;
78787;SDS011;68131;52.508;5.502;2024-02-14T08:57:45;11.10;;;4.78;;
78787;SDS011;68131;52.508;5.502;2024-02-14T09:00:18;10.32;;;5.15;;
78787;SDS011;68131;52.508;5.502;2024-02-14T09:02:47;9.70;;;5.55;;
78787;SDS011;68131;52.508;5.502;2024-02-14T09:05:18;9.82;;;5.72;;
78787;SDS011;68131;52.508;5.502;2024-02-14T09:07:48;9.93;;;5.43;;
78787;SDS011;68131;52.508;5.502;2024-02-14T09:10:17;9.57;;;5.13;;
78787;SDS011;68131;52.508;5.502;2024-02-14T09:12:47;7.20;;;4.82;;
78787;SDS011;68131;52.508;5.502;2024-02-14T09:15:19;7.43;;;4.88;;
78787;SDS011;68131;52.508;5.502;2024-02-14T09:17:48;9.48;;;4.75;;
78787;SDS011;68131;52.508;5.502;2024-02-14T09:20:20;9.23;;;4.72;;
78787;SDS011;68131;52.508;5.502;2024-02-14T09:22:50;10.68;;;5.13;;
78787;SDS011;68131;52.508;5.502;2024-02-14T09:25:19;10.18;;;5.05;;
78787;SDS011;68131;52.508;5.502;2024-02-14T09:27:49;11.20;;;5.68;;
78787;SDS011;68131;52.508;5.502;2024-02-14T09:30:21;8.98;;;5.35;;
78787;SDS011;68131;52.508;5.502;2024-02-14T09:32:50;9.60;;;5.57;;
78787;SDS011;68131;52.508;5.502;2024-02-14T09:35:21;7.70;;;4.63;;
78787;SDS011;68131;52.508;5.502;2024-02-14T09:37:51;12.18;;;4.72;;
78787;SDS011;68131;52.508;5.502;2024-02-14T09:40:20;8.80;;;4.93;;
78787;SDS011;68131;52.508;5.502;2024-02-14T09:42:51;10.77;;;4.72;;
78787;SDS011;68131;52.508;5.502;2024-02-14T09:45:26;6.07;;;4.05;;
78787;SDS011;68131;52.508;5.502;2024-02-14T09:47:56;9.75;;;5.40;;
78787;SDS011;68131;52.508;5.502;2024-02-14T09:50:26;7.63;;;4.50;;
78787;SDS011;68131;52.508;5.502;2024-02-14T09:52:58;6.07;;;4.03;;
78787;SDS011;68131;52.508;5.502;2024-02-14T09:55:28;6.57;;;3.75;;
78787;SDS011;68131;52.508;5.502;2024-02-14T09:58:00;7.13;;;4.03;;
78787;SDS011;68131;52.508;5.502;2024-02-14T10:00:34;5.57;;;3.58;;
78787;SDS011;68131;52.508;5.502;2024-02-14T10:03:06;5.38;;;3.33;;
78787;SDS011;68131;52.508;5.502;2024-02-14T10:05:36;3.70;;;2.30;;
78787;SDS011;68131;52.508;5.502;2024-02-14T10:08:05;4.63;;;3.22;;
78787;SDS011;68131;52.508;5.502;2024-02-14T10:10:35;3.70;;;2.83;;
78787;SDS011;68131;52.508;5.502;2024-02-14T10:13:05;4.53;;;2.72;;
78787;SDS011;68131;52.508;5.502;2024-02-14T10:15:40;7.20;;;4.78;;
78787;SDS011;68131;52.508;5.502;2024-02-14T10:18:09;4.93;;;2.70;;
78787;SDS011;68131;52.508;5.502;2024-02-14T10:20:40;4.07;;;2.78;;
78787;SDS011;68131;52.508;5.502;2024-02-14T10:23:10;5.03;;;2.70;;
78787;SDS011;68131;52.508;5.502;2024-02-14T10:25:40;4.35;;;2.97;;
78787;SDS011;68131;52.508;5.502;2024-02-14T10:28:09;4.53;;;3.08;;
78787;SDS011;68131;52.508;5.502;2024-02-14T10:30:40;4.10;;;2.90;;
78787;SDS011;68131;52.508;5.502;2024-02-14T10:33:15;3.53;;;2.20;;
78787;SDS011;68131;52.508;5.502;2024-02-14T10:35:45;4.78;;;2.83;;
78787;SDS011;68131;52.508;5.502;2024-02-14T10:38:15;3.80;;;2.30;;
78787;SDS011;68131;52.508;5.502;2024-02-14T10:40:46;3.90;;;2.55;;
78787;SDS011;68131;52.508;5.502;2024-02-14T10:43:16;3.00;;;1.88;;
78787;SDS011;68131;52.508;5.502;2024-02-14T10:45:48;3.05;;;1.92;;
78787;SDS011;68131;52.508;5.502;2024-02-14T10:48:21;3.38;;;2.10;;
78787;SDS011;68131;52.508;5.502;2024-02-14T10:50:52;4.43;;;2.85;;
78787;SDS011;68131;52.508;5.502;2024-02-14T10:53:22;4.93;;;2.55;;
78787;SDS011;68131;52.508;5.502;2024-02-14T10:55:54;5.50;;;2.55;;
78787;SDS011;68131;52.508;5.502;2024-02-14T10:58:26;3.47;;;2.33;;
78787;SDS011;68131;52.508;5.502;2024-02-14T11:01:00;4.38;;;2.40;;
78787;SDS011;68131;52.508;5.502;2024-02-14T11:03:30;4.18;;;2.92;;
78787;SDS011;68131;52.508;5.502;2024-02-14T11:06:00;4.93;;;3.10;;
78787;SDS011;68131;52.508;5.502;2024-02-14T11:08:30;6.50;;;3.65;;
78787;SDS011;68131;52.508;5.502;2024-02-14T11:11:01;4.38;;;3.20;;
78787;SDS011;68131;52.508;5.502;2024-02-14T11:13:31;5.00;;;3.42;;
78787;SDS011;68131;52.508;5.502;2024-02-14T11:16:08;7.05;;;4.10;;
78787;SDS011;68131;52.508;5.502;2024-02-14T11:18:38;6.45;;;3.35;;
78787;SDS011;68131;52.508;5.502;2024-02-14T11:21:15;6.45;;;3.55;;
78787;SDS011;68131;52.508;5.502;2024-02-14T11:23:52;7.85;;;3.95;;
78787;SDS011;68131;52.508;5.502;2024-02-14T11:26:21;6.00;;;3.42;;
78787;SDS011;68131;52.508;5.502;2024-02-14T11:28:59;5.78;;;3.75;;
78787;SDS011;68131;52.508;5.502;2024-02-14T11:31:35;7.00;;;3.85;;
78787;SDS011;68131;52.508;5.502;2024-02-14T11:34:04;4.28;;;3.15;;
78787;SDS011;68131;52.508;5.502;2024-02-14T11:36:34;5.00;;;3.78;;
78787;SDS011;68131;52.508;5.502;2024-02-14T11:39:05;6.00;;;3.05;;
78787;SDS011;68131;52.508;5.502;2024-02-14T11:41:34;5.50;;;3.53;;
78787;SDS011;68131;52.508;5.502;2024-02-14T11:44:05;5.15;;;3.38;;
78787;SDS011;68131;52.508;5.502;2024-02-14T11:46:36;6.50;;;2.88;;
78787;SDS011;68131;52.508;5.502;2024-02-14T11:49:07;5.38;;;3.63;;
78787;SDS011;68131;52.508;5.502;2024-02-14T11:51:36;4.65;;;3.25;;
78787;SDS011;68131;52.508;5.502;2024-02-14T11:54:07;5.80;;;3.40;;
78787;SDS011;68131;52.508;5.502;2024-02-14T11:56:37;4.30;;;2.72;;
78787;SDS011;68131;52.508;5.502;2024-02-14T11:59:07;5.82;;;2.88;;
78787;SDS011;68131;52.508;5.502;2024-02-14T12:01:39;3.03;;;2.15;;
78787;SDS011;68131;52.508;5.502;2024-02-14T12:04:08;3.20;;;2.10;;
78787;SDS011;68131;52.508;5.502;2024-02-14T12:06:39;2.75;;;1.80;;
78787;SDS011;68131;52.508;5.502;2024-02-14T12:09:09;3.15;;;1.90;;
78787;SDS011;68131;52.508;5.502;2024-02-14T12:11:40;1.85;;;1.42;;
78787;SDS011;68131;52.508;5.502;2024-02-14T12:14:11;2.10;;;1.58;;
78787;SDS011;68131;52.508;5.502;2024-02-14T12:16:43;2.08;;;1.40;;
78787;SDS011;68131;52.508;5.502;2024-02-14T12:19:13;2.13;;;1.35;;
78787;SDS011;68131;52.508;5.502;2024-02-14T12:21:44;1.50;;;1.15;;
78787;SDS011;68131;52.508;5.502;2024-02-14T12:24:14;3.03;;;1.40;;
78787;SDS011;68131;52.508;5.502;2024-02-14T12:26:43;1.35;;;1.23;;
78787;SDS011;68131;52.508;5.502;2024-02-14T12:29:14;1.38;;;1.00;;
78787;SDS011;68131;52.508;5.502;2024-02-14T12:31:47;1.73;;;1.33;;
78787;SDS011;68131;52.508;5.502;2024-02-14T12:34:16;3.70;;;1.42;;
78787;SDS011;68131;52.508;5.502;2024-02-14T12:36:46;1.60;;;1.20;;
78787;SDS011;68131;52.508;5.502;2024-02-14T12:39:15;2.20;;;1.42;;
78787;SDS011;68131;52.508;5.502;2024-02-14T12:41:46;1.92;;;1.25;;
78787;SDS011;68131;52.508;5.502;2024-02-14T12:44:12;2.13;;;1.60;;
78787;SDS011;68131;52.508;5.502;2024-02-14T12:46:41;1.80;;;1.13;;
78787;SDS011;68131;52.508;5.502;2024-02-14T12:49:14;1.60;;;1.50;;
78787;SDS011;68131;52.508;5.502;2024-02-14T12:51:43;2.38;;;1.40;;
78787;SDS011;68131;52.508;5.502;2024-02-14T12:54:12;3.22;;;1.30;;
78787;SDS011;68131;52.508;5.502;2024-02-14T12:56:41;2.08;;;1.35;;
78787;SDS011;68131;52.508;5.502;2024-02-14T12:59:14;1.75;;;1.13;;
78787;SDS011;68131;52.508;5.502;2024-02-14T13:01:46;2.78;;;1.33;;
78787;SDS011;68131;52.508;5.502;2024-02-14T13:04:18;1.08;;;0.88;;
78787;SDS011;68131;52.508;5.502;2024-02-14T13:06:48;1.27;;;1.17;;
78787;SDS011;68131;52.508;5.502;2024-02-14T13:09:17;1.42;;;1.15;;
78787;SDS011;68131;52.508;5.502;2024-02-14T13:11:47;2.97;;;1.67;;
78787;SDS011;68131;52.508;5.502;2024-02-14T13:14:17;1.92;;;1.20;;
78787;SDS011;68131;52.508;5.502;2024-02-14T13:16:46;2.20;;;1.73;;
78787;SDS011;68131;52.508;5.502;2024-02-14T13:19:18;2.17;;;1.40;;
78787;SDS011;68131;52.508;5.502;2024-02-14T13:21:47;2.22;;;1.58;;
78787;SDS011;68131;52.508;5.502;2024-02-14T13:24:16;1.90;;;1.40;;
78787;SDS011;68131;52.508;5.502;2024-02-14T13:26:45;1.92;;;1.40;;
78787;SDS011;68131;52.508;5.502;2024-02-14T13:29:15;2.10;;;1.88;;
78787;SDS011;68131;52.508;5.502;2024-02-14T13:31:45;1.77;;;1.55;;
78787;SDS011;68131;52.508;5.502;2024-02-14T13:34:18;2.45;;;1.60;;
78787;SDS011;68131;52.508;5.502;2024-02-14T13:36:47;1.95;;;1.48;;
78787;SDS011;68131;52.508;5.502;2024-02-14T13:39:16;1.77;;;1.40;;
78787;SDS011;68131;52.508;5.502;2024-02-14T13:41:45;1.73;;;1.02;;
78787;SDS011;68131;52.508;5.502;2024-02-14T13:44:14;1.73;;;1.05;;
78787;SDS011;68131;52.508;5.502;2024-02-14T13:46:45;1.50;;;1.20;;
78787;SDS011;68131;52.508;5.502;2024-02-14T13:49:18;0.93;;;0.82;;
78787;SDS011;68131;52.508;5.502;2024-02-14T13:51:48;1.40;;;1.00;;
78787;SDS011;68131;52.508;5.502;2024-02-14T13:54:17;1.17;;;0.73;;
78787;SDS011;68131;52.508;5.502;2024-02-14T13:56:47;1.90;;;0.90;;
78787;SDS011;68131;52.508;5.502;2024-02-14T13:59:16;1.00;;;0.90;;
78787;SDS011;68131;52.508;5.502;2024-02-14T14:01:46;2.00;;;1.20;;
78787;SDS011;68131;52.508;5.502;2024-02-14T14:04:18;0.82;;;0.60;;
78787;SDS011;68131;52.508;5.502;2024-02-14T14:06:47;0.55;;;0.50;;
78787;SDS011;68131;52.508;5.502;2024-02-14T14:09:16;0.82;;;0.63;;
78787;SDS011;68131;52.508;5.502;2024-02-14T14:11:45;0.80;;;0.57;;
78787;SDS011;68131;52.508;5.502;2024-02-14T14:14:16;1.02;;;0.40;;
78787;SDS011;68131;52.508;5.502;2024-02-14T14:16:46;0.70;;;0.57;;
78787;SDS011;68131;52.508;5.502;2024-02-14T14:19:18;0.68;;;0.47;;
78787;SDS011;68131;52.508;5.502;2024-02-14T14:21:47;0.40;;;0.40;;
78787;SDS011;68131;52.508;5.502;2024-02-14T14:24:17;0.70;;;0.50;;
78787;SDS011;68131;52.508;5.502;2024-02-14T14:26:46;0.93;;;0.55;;
78787;SDS011;68131;52.508;5.502;2024-02-14T14:29:16;1.00;;;0.60;;
78787;SDS011;68131;52.508;5.502;2024-02-14T14:31:45;0.85;;;0.77;;
78787;SDS011;68131;52.508;5.502;2024-02-14T14:34:14;1.23;;;0.60;;
78787;SDS011;68131;52.508;5.502;2024-02-14T14:36:46;0.60;;;0.60;;
78787;SDS011;68131;52.508;5.502;2024-02-14T14:39:17;0.63;;;0.60;;
78787;SDS011;68131;52.508;5.502;2024-02-14T14:41:46;0.55;;;0.50;;
78787;SDS011;68131;52.508;5.502;2024-02-14T14:44:17;0.68;;;0.50;;
78787;SDS011;68131;52.508;5.502;2024-02-14T14:46:46;1.15;;;0.73;;
78787;SDS011;68131;52.508;5.502;2024-02-14T14:49:18;1.58;;;1.08;;
78787;SDS011;68131;52.508;5.502;2024-02-14T14:51:47;1.10;;;0.98;;
78787;SDS011;68131;52.508;5.502;2024-02-14T14:54:16;1.73;;;1.17;;
78787;SDS011;68131;52.508;5.502;2024-02-14T14:56:52;1.67;;;1.02;;
78787;SDS011;68131;52.508;5.502;2024-02-14T14:59:22;1.20;;;1.10;;
78787;SDS011;68131;52.508;5.502;2024-02-14T15:01:51;1.65;;;1.25;;
78787;SDS011;68131;52.508;5.502;2024-02-14T15:04:22;0.90;;;0.80;;
78787;SDS011;68131;52.508;5.502;2024-02-14T15:06:54;1.85;;;1.10;;
78787;SDS011;68131;52.508;5.502;2024-02-14T15:09:25;1.33;;;1.08;;
78787;SDS011;68131;52.508;5.502;2024-02-14T15:11:54;1.25;;;1.08;;